sensor_id;sensor_type;location;lat;lon;timestamp;pressure;altitude;pressure_sealevel;temperature;humidity
64340;BME280;63709;53.258;-8.814;2023-02-13T00:00:29;102949.22;;;12.52;100.00
64340;BME280;63709;53.258;-8.814;2023-02-13T00:02:57;102952.75;;;12.53;100.00
64340;BME280;63709;53.258;-8.814;2023-02-13T00:05:22;102950.97;;;12.53;100.00
64340;BME280;63709;53.258;-8.814;2023-02-13T00:07:49;102951.03;;;12.52;100.00
64340;BME280;63709;53.258;-8.814;2023-02-13T00:10:15;102956.00;;;12.42;100.00
64340;BME280;63709;53.258;-8.814;2023-02-13T00:12:41;102947.72;;;12.47;100.00
64340;BME280;63709;53.258;-8.814;2023-02-13T00:15:07;102957.41;;;12.49;100.00
64340;BME280;63709;53.258;-8.814;2023-02-13T00:17:33;102953.72;;;12.52;100.00
64340;BME280;63709;53.258;-8.814;2023-02-13T00:19:58;102955.53;;;12.51;100.00
64340;BME280;63709;53.258;-8.814;2023-02-13T00:22:25;102957.84;;;12.59;100.00
64340;BME280;63709;53.258;-8.814;2023-02-13T00:24:50;102946.25;;;12.58;100.00
64340;BME280;63709;53.258;-8.814;2023-02-13T00:27:16;102944.44;;;12.59;100.00
64340;BME280;63709;53.258;-8.814;2023-02-13T00:29:41;102942.63;;;12.59;100.00
64340;BME280;63709;53.258;-8.814;2023-02-13T00:32:07;102935.31;;;12.63;100.00
64340;BME280;63709;53.258;-8.814;2023-02-13T00:34:34;102936.09;;;12.65;100.00
64340;BME280;63709;53.258;-8.814;2023-02-13T00:36:59;102929.00;;;12.64;100.00
64340;BME280;63709;53.258;-8.814;2023-02-13T00:39:25;102929.88;;;12.65;100.00
64340;BME280;63709;53.258;-8.814;2023-02-13T00:41:51;102928.13;;;12.64;100.00
64340;BME280;63709;53.258;-8.814;2023-02-13T00:44:17;102928.22;;;12.62;100.00
64340;BME280;63709;53.258;-8.814;2023-02-13T00:46:42;102918.13;;;12.67;100.00
64340;BME280;63709;53.258;-8.814;2023-02-13T00:49:08;102917.75;;;12.75;100.00
64340;BME280;63709;53.258;-8.814;2023-02-13T00:51:33;102910.09;;;12.67;100.00
64340;BME280;63709;53.258;-8.814;2023-02-13T00:53:58;102908.84;;;12.57;100.00
64340;BME280;63709;53.258;-8.814;2023-02-13T00:56:25;102908.03;;;12.55;100.00
64340;BME280;63709;53.258;-8.814;2023-02-13T00:58:52;102912.03;;;12.46;100.00
64340;BME280;63709;53.258;-8.814;2023-02-13T01:01:17;102905.00;;;12.44;100.00
64340;BME280;63709;53.258;-8.814;2023-02-13T01:03:43;102901.75;;;12.37;100.00
64340;BME280;63709;53.258;-8.814;2023-02-13T01:06:08;102912.41;;;12.39;100.00
64340;BME280;63709;53.258;-8.814;2023-02-13T01:08:34;102908.94;;;12.37;100.00
64340;BME280;63709;53.258;-8.814;2023-02-13T01:11:00;102913.34;;;12.38;100.00
64340;BME280;63709;53.258;-8.814;2023-02-13T01:13:28;102905.81;;;12.27;100.00
64340;BME280;63709;53.258;-8.814;2023-02-13T01:15:54;102903.81;;;12.32;100.00
64340;BME280;63709;53.258;-8.814;2023-02-13T01:18:20;102899.03;;;12.39;100.00
64340;BME280;63709;53.258;-8.814;2023-02-13T01:20:54;102894.94;;;12.49;100.00
64340;BME280;63709;53.258;-8.814;2023-02-13T01:23:20;102899.03;;;12.56;100.00
64340;BME280;63709;53.258;-8.814;2023-02-13T01:25:46;102896.34;;;12.56;100.00
64340;BME280;63709;53.258;-8.814;2023-02-13T01:28:12;102903.47;;;12.57;100.00
64340;BME280;63709;53.258;-8.814;2023-02-13T01:30:37;102900.47;;;12.63;100.00
64340;BME280;63709;53.258;-8.814;2023-02-13T01:33:03;102883.63;;;12.61;100.00
64340;BME280;63709;53.258;-8.814;2023-02-13T01:35:28;102890.38;;;12.51;100.00
64340;BME280;63709;53.258;-8.814;2023-02-13T01:37:55;102892.09;;;12.52;100.00
64340;BME280;63709;53.258;-8.814;2023-02-13T01:40:20;102887.69;;;12.51;100.00
64340;BME280;63709;53.258;-8.814;2023-02-13T01:42:47;102885.31;;;12.45;100.00
64340;BME280;63709;53.258;-8.814;2023-02-13T01:47:41;102886.75;;;12.52;100.00
64340;BME280;63709;53.258;-8.814;2023-02-13T01:52:39;102883.25;;;12.32;100.00
64340;BME280;63709;53.258;-8.814;2023-02-13T01:55:05;102864.03;;;12.42;100.00
64340;BME280;63709;53.258;-8.814;2023-02-13T01:57:32;102879.19;;;12.43;100.00
64340;BME280;63709;53.258;-8.814;2023-02-13T01:59:59;102880.81;;;12.45;100.00
64340;BME280;63709;53.258;-8.814;2023-02-13T02:02:27;102885.03;;;12.51;100.00
64340;BME280;63709;53.258;-8.814;2023-02-13T02:04:55;102886.03;;;12.48;100.00
64340;BME280;63709;53.258;-8.814;2023-02-13T02:07:23;102874.22;;;12.52;100.00
64340;BME280;63709;53.258;-8.814;2023-02-13T02:09:50;102882.66;;;12.62;100.00
64340;BME280;63709;53.258;-8.814;2023-02-13T02:14:43;102875.69;;;12.41;100.00
64340;BME280;63709;53.258;-8.814;2023-02-13T02:17:10;102877.69;;;12.54;100.00
64340;BME280;63709;53.258;-8.814;2023-02-13T02:27:13;102876.50;;;12.60;100.00
64340;BME280;63709;53.258;-8.814;2023-02-13T02:45:21;102867.31;;;12.83;100.00
64340;BME280;63709;53.258;-8.814;2023-02-13T02:47:52;102868.09;;;12.85;100.00
64340;BME280;63709;53.258;-8.814;2023-02-13T03:00:50;102857.53;;;12.65;100.00
64340;BME280;63709;53.258;-8.814;2023-02-13T03:03:36;102859.72;;;12.56;100.00
64340;BME280;63709;53.258;-8.814;2023-02-13T03:06:55;102859.09;;;12.51;100.00
64340;BME280;63709;53.258;-8.814;2023-02-13T03:09:14;102851.06;;;12.51;100.00
64340;BME280;63709;53.258;-8.814;2023-02-13T03:11:59;102849.34;;;12.50;100.00
64340;BME280;63709;53.258;-8.814;2023-02-13T03:14:44;102834.91;;;12.53;100.00
64340;BME280;63709;53.258;-8.814;2023-02-13T03:17:11;102842.00;;;12.54;100.00
64340;BME280;63709;53.258;-8.814;2023-02-13T03:20:02;102838.13;;;12.59;100.00
64340;BME280;63709;53.258;-8.814;2023-02-13T03:23:02;102832.53;;;12.64;100.00
64340;BME280;63709;53.258;-8.814;2023-02-13T03:25:35;102843.03;;;12.69;100.00
64340;BME280;63709;53.258;-8.814;2023-02-13T03:31:07;102835.06;;;12.67;100.00
64340;BME280;63709;53.258;-8.814;2023-02-13T03:33:48;102840.81;;;12.77;100.00
64340;BME280;63709;53.258;-8.814;2023-02-13T03:39:34;102833.78;;;12.74;100.00
64340;BME280;63709;53.258;-8.814;2023-02-13T03:42:08;102829.47;;;12.54;100.00
64340;BME280;63709;53.258;-8.814;2023-02-13T03:47:00;102830.50;;;12.69;100.00
64340;BME280;63709;53.258;-8.814;2023-02-13T03:49:32;102828.47;;;12.57;100.00
64340;BME280;63709;53.258;-8.814;2023-02-13T03:52:22;102824.19;;;12.35;100.00
64340;BME280;63709;53.258;-8.814;2023-02-13T03:55:00;102822.84;;;12.44;100.00
64340;BME280;63709;53.258;-8.814;2023-02-13T03:57:46;102827.97;;;12.31;100.00
64340;BME280;63709;53.258;-8.814;2023-02-13T04:00:39;102827.56;;;12.39;100.00
64340;BME280;63709;53.258;-8.814;2023-02-13T04:03:13;102823.66;;;12.46;100.00
64340;BME280;63709;53.258;-8.814;2023-02-13T04:05:42;102822.06;;;12.42;100.00
64340;BME280;63709;53.258;-8.814;2023-02-13T04:08:09;102804.97;;;12.45;100.00
64340;BME280;63709;53.258;-8.814;2023-02-13T04:10:35;102806.88;;;12.43;100.00
64340;BME280;63709;53.258;-8.814;2023-02-13T04:13:16;102800.69;;;12.41;100.00
64340;BME280;63709;53.258;-8.814;2023-02-13T04:15:49;102806.53;;;12.49;100.00
64340;BME280;63709;53.258;-8.814;2023-02-13T04:20:45;102786.22;;;12.45;100.00
64340;BME280;63709;53.258;-8.814;2023-02-13T04:23:11;102786.84;;;12.32;100.00
64340;BME280;63709;53.258;-8.814;2023-02-13T04:25:38;102799.22;;;12.35;100.00
64340;BME280;63709;53.258;-8.814;2023-02-13T04:28:04;102793.13;;;12.14;100.00
64340;BME280;63709;53.258;-8.814;2023-02-13T04:30:30;102789.28;;;12.37;100.00
64340;BME280;63709;53.258;-8.814;2023-02-13T04:32:57;102786.22;;;12.27;100.00
64340;BME280;63709;53.258;-8.814;2023-02-13T04:35:22;102792.34;;;12.29;100.00
64340;BME280;63709;53.258;-8.814;2023-02-13T04:37:48;102792.09;;;12.34;100.00
64340;BME280;63709;53.258;-8.814;2023-02-13T04:40:14;102789.38;;;12.35;100.00
64340;BME280;63709;53.258;-8.814;2023-02-13T04:42:39;102788.50;;;12.35;100.00
64340;BME280;63709;53.258;-8.814;2023-02-13T04:45:06;102791.91;;;12.39;100.00
64340;BME280;63709;53.258;-8.814;2023-02-13T04:47:32;102794.56;;;12.39;100.00
64340;BME280;63709;53.258;-8.814;2023-02-13T04:49:57;102788.66;;;12.32;100.00
64340;BME280;63709;53.258;-8.814;2023-02-13T04:52:23;102795.94;;;12.11;100.00
64340;BME280;63709;53.258;-8.814;2023-02-13T04:54:48;102790.31;;;12.17;100.00
64340;BME280;63709;53.258;-8.814;2023-02-13T04:57:14;102798.00;;;12.23;100.00
64340;BME280;63709;53.258;-8.814;2023-02-13T04:59:39;102796.22;;;12.24;100.00
64340;BME280;63709;53.258;-8.814;2023-02-13T05:02:07;102795.19;;;12.26;100.00
64340;BME280;63709;53.258;-8.814;2023-02-13T05:04:32;102796.38;;;12.21;100.00
64340;BME280;63709;53.258;-8.814;2023-02-13T05:06:58;102800.69;;;12.23;100.00
64340;BME280;63709;53.258;-8.814;2023-02-13T05:09:24;102800.16;;;12.34;100.00
64340;BME280;63709;53.258;-8.814;2023-02-13T05:11:53;102795.19;;;12.26;100.00
64340;BME280;63709;53.258;-8.814;2023-02-13T05:14:18;102802.59;;;12.21;100.00
64340;BME280;63709;53.258;-8.814;2023-02-13T05:16:45;102791.94;;;12.20;100.00
64340;BME280;63709;53.258;-8.814;2023-02-13T05:19:10;102792.25;;;12.31;100.00
64340;BME280;63709;53.258;-8.814;2023-02-13T05:21:36;102789.19;;;12.21;100.00
64340;BME280;63709;53.258;-8.814;2023-02-13T05:24:20;102790.09;;;12.39;100.00
64340;BME280;63709;53.258;-8.814;2023-02-13T05:26:47;102793.06;;;12.33;100.00
64340;BME280;63709;53.258;-8.814;2023-02-13T05:29:12;102799.66;;;12.26;100.00
64340;BME280;63709;53.258;-8.814;2023-02-13T05:32:01;102791.63;;;12.26;100.00
64340;BME280;63709;53.258;-8.814;2023-02-13T05:34:28;102784.16;;;12.32;100.00
64340;BME280;63709;53.258;-8.814;2023-02-13T05:39:22;102791.19;;;12.35;100.00
64340;BME280;63709;53.258;-8.814;2023-02-13T05:41:50;102787.00;;;12.29;100.00
64340;BME280;63709;53.258;-8.814;2023-02-13T05:44:16;102784.22;;;12.31;100.00
64340;BME280;63709;53.258;-8.814;2023-02-13T05:46:41;102784.88;;;12.36;100.00
64340;BME280;63709;53.258;-8.814;2023-02-13T05:49:08;102776.44;;;12.44;100.00
64340;BME280;63709;53.258;-8.814;2023-02-13T05:51:34;102772.59;;;12.32;100.00
64340;BME280;63709;53.258;-8.814;2023-02-13T05:54:01;102772.75;;;12.29;100.00
64340;BME280;63709;53.258;-8.814;2023-02-13T05:56:27;102783.44;;;12.29;100.00
64340;BME280;63709;53.258;-8.814;2023-02-13T05:58:53;102782.03;;;12.22;100.00
64340;BME280;63709;53.258;-8.814;2023-02-13T06:01:21;102774.94;;;12.38;100.00
64340;BME280;63709;53.258;-8.814;2023-02-13T06:03:47;102789.94;;;12.42;100.00
64340;BME280;63709;53.258;-8.814;2023-02-13T06:06:13;102786.69;;;12.35;100.00
64340;BME280;63709;53.258;-8.814;2023-02-13T06:08:39;102775.03;;;12.37;100.00
64340;BME280;63709;53.258;-8.814;2023-02-13T06:11:05;102767.84;;;12.37;100.00
64340;BME280;63709;53.258;-8.814;2023-02-13T06:13:31;102764.47;;;12.33;100.00
64340;BME280;63709;53.258;-8.814;2023-02-13T06:15:58;102758.78;;;12.22;100.00
64340;BME280;63709;53.258;-8.814;2023-02-13T06:18:23;102754.84;;;12.29;100.00
64340;BME280;63709;53.258;-8.814;2023-02-13T06:20:50;102756.25;;;12.19;100.00
64340;BME280;63709;53.258;-8.814;2023-02-13T06:23:15;102752.72;;;12.19;100.00
64340;BME280;63709;53.258;-8.814;2023-02-13T06:25:40;102748.16;;;12.21;100.00
64340;BME280;63709;53.258;-8.814;2023-02-13T06:28:06;102736.59;;;12.20;100.00
64340;BME280;63709;53.258;-8.814;2023-02-13T06:30:32;102741.06;;;12.20;100.00
64340;BME280;63709;53.258;-8.814;2023-02-13T06:32:58;102742.34;;;12.13;100.00
64340;BME280;63709;53.258;-8.814;2023-02-13T06:35:24;102740.22;;;12.02;100.00
64340;BME280;63709;53.258;-8.814;2023-02-13T06:37:50;102739.56;;;11.97;100.00
64340;BME280;63709;53.258;-8.814;2023-02-13T06:40:15;102737.34;;;11.88;100.00
64340;BME280;63709;53.258;-8.814;2023-02-13T06:42:42;102736.25;;;11.92;100.00
64340;BME280;63709;53.258;-8.814;2023-02-13T06:45:07;102732.63;;;11.93;100.00
64340;BME280;63709;53.258;-8.814;2023-02-13T06:47:33;102739.06;;;11.89;100.00
64340;BME280;63709;53.258;-8.814;2023-02-13T06:49:59;102741.25;;;11.80;100.00
64340;BME280;63709;53.258;-8.814;2023-02-13T06:52:26;102740.44;;;11.78;100.00
64340;BME280;63709;53.258;-8.814;2023-02-13T06:54:53;102735.22;;;11.75;100.00
64340;BME280;63709;53.258;-8.814;2023-02-13T06:57:18;102739.81;;;11.73;100.00
64340;BME280;63709;53.258;-8.814;2023-02-13T06:59:43;102734.59;;;11.70;100.00
64340;BME280;63709;53.258;-8.814;2023-02-13T07:02:12;102730.72;;;11.58;100.00
64340;BME280;63709;53.258;-8.814;2023-02-13T07:04:37;102730.63;;;11.60;100.00
64340;BME280;63709;53.258;-8.814;2023-02-13T07:07:03;102730.72;;;11.58;100.00
64340;BME280;63709;53.258;-8.814;2023-02-13T07:09:31;102738.88;;;11.55;100.00
64340;BME280;63709;53.258;-8.814;2023-02-13T07:11:56;102736.28;;;11.54;100.00
64340;BME280;63709;53.258;-8.814;2023-02-13T07:14:22;102730.81;;;11.57;100.00
64340;BME280;63709;53.258;-8.814;2023-02-13T07:16:48;102738.97;;;11.54;100.00
64340;BME280;63709;53.258;-8.814;2023-02-13T07:19:14;102740.56;;;11.58;100.00
64340;BME280;63709;53.258;-8.814;2023-02-13T07:21:39;102740.78;;;11.53;100.00
64340;BME280;63709;53.258;-8.814;2023-02-13T07:24:05;102744.22;;;11.55;100.00
64340;BME280;63709;53.258;-8.814;2023-02-13T07:26:31;102744.03;;;11.41;100.00
64340;BME280;63709;53.258;-8.814;2023-02-13T07:28:57;102739.72;;;11.38;100.00
64340;BME280;63709;53.258;-8.814;2023-02-13T07:31:23;102730.78;;;11.38;100.00
64340;BME280;63709;53.258;-8.814;2023-02-13T07:33:49;102729.78;;;11.41;100.00
64340;BME280;63709;53.258;-8.814;2023-02-13T07:36:14;102736.09;;;11.39;100.00
64340;BME280;63709;53.258;-8.814;2023-02-13T07:38:40;102725.03;;;11.47;100.00
64340;BME280;63709;53.258;-8.814;2023-02-13T07:41:05;102724.94;;;11.49;100.00
64340;BME280;63709;53.258;-8.814;2023-02-13T07:43:30;102724.94;;;11.49;100.00
64340;BME280;63709;53.258;-8.814;2023-02-13T07:46:00;102724.38;;;11.42;100.00
64340;BME280;63709;53.258;-8.814;2023-02-13T07:48:26;102725.53;;;11.36;100.00
64340;BME280;63709;53.258;-8.814;2023-02-13T07:50:52;102732.59;;;11.37;100.00
64340;BME280;63709;53.258;-8.814;2023-02-13T07:53:18;102733.56;;;11.36;100.00
64340;BME280;63709;53.258;-8.814;2023-02-13T07:55:43;102731.81;;;11.35;100.00
64340;BME280;63709;53.258;-8.814;2023-02-13T07:58:09;102732.81;;;11.33;100.00
64340;BME280;63709;53.258;-8.814;2023-02-13T08:00:35;102737.91;;;11.39;100.00
64340;BME280;63709;53.258;-8.814;2023-02-13T08:03:01;102737.19;;;11.35;100.00
64340;BME280;63709;53.258;-8.814;2023-02-13T08:05:28;102730.53;;;11.25;100.00
64340;BME280;63709;53.258;-8.814;2023-02-13T08:07:55;102737.44;;;11.29;100.00
64340;BME280;63709;53.258;-8.814;2023-02-13T08:10:20;102729.19;;;11.34;100.00
64340;BME280;63709;53.258;-8.814;2023-02-13T08:13:05;102729.34;;;11.31;100.00
64340;BME280;63709;53.258;-8.814;2023-02-13T08:15:31;102726.34;;;11.38;100.00
64340;BME280;63709;53.258;-8.814;2023-02-13T08:17:57;102717.88;;;11.29;100.00
64340;BME280;63709;53.258;-8.814;2023-02-13T08:20:22;102721.84;;;11.39;100.00
64340;BME280;63709;53.258;-8.814;2023-02-13T08:22:48;102726.34;;;11.38;100.00
64340;BME280;63709;53.258;-8.814;2023-02-13T08:25:14;102730.44;;;11.27;100.00
64340;BME280;63709;53.258;-8.814;2023-02-13T08:27:39;102720.81;;;11.42;100.00
64340;BME280;63709;53.258;-8.814;2023-02-13T08:30:07;102720.19;;;11.36;100.00
64340;BME280;63709;53.258;-8.814;2023-02-13T08:32:33;102720.63;;;11.46;100.00
64340;BME280;63709;53.258;-8.814;2023-02-13T08:34:58;102721.41;;;11.48;100.00
64340;BME280;63709;53.258;-8.814;2023-02-13T08:37:23;102720.69;;;11.45;100.00
64340;BME280;63709;53.258;-8.814;2023-02-13T08:39:49;102720.09;;;11.38;100.00
64340;BME280;63709;53.258;-8.814;2023-02-13T08:42:14;102716.38;;;11.42;100.00
64340;BME280;63709;53.258;-8.814;2023-02-13T08:44:40;102718.44;;;11.54;100.00
64340;BME280;63709;53.258;-8.814;2023-02-13T08:47:07;102717.78;;;11.68;100.00
64340;BME280;63709;53.258;-8.814;2023-02-13T08:49:34;102711.22;;;11.74;100.00
64340;BME280;63709;53.258;-8.814;2023-02-13T08:52:00;102706.59;;;11.77;100.00
64340;BME280;63709;53.258;-8.814;2023-02-13T08:54:27;102719.47;;;11.88;100.00
64340;BME280;63709;53.258;-8.814;2023-02-13T08:56:53;102712.47;;;11.85;100.00
64340;BME280;63709;53.258;-8.814;2023-02-13T08:59:19;102706.44;;;11.80;100.00
64340;BME280;63709;53.258;-8.814;2023-02-13T09:01:45;102701.88;;;11.82;100.00
64340;BME280;63709;53.258;-8.814;2023-02-13T09:04:11;102703.66;;;11.83;100.00
64340;BME280;63709;53.258;-8.814;2023-02-13T09:06:38;102713.88;;;11.93;100.00
64340;BME280;63709;53.258;-8.814;2023-02-13T09:09:05;102706.50;;;11.98;100.00
64340;BME280;63709;53.258;-8.814;2023-02-13T09:11:31;102701.16;;;11.98;100.00
64340;BME280;63709;53.258;-8.814;2023-02-13T09:13:57;102708.47;;;11.94;100.00
64340;BME280;63709;53.258;-8.814;2023-02-13T09:16:22;102707.19;;;12.01;100.00
64340;BME280;63709;53.258;-8.814;2023-02-13T09:18:48;102701.69;;;12.04;100.00
64340;BME280;63709;53.258;-8.814;2023-02-13T09:21:14;102703.25;;;12.08;100.00
64340;BME280;63709;53.258;-8.814;2023-02-13T09:23:40;102705.78;;;12.11;100.00
64340;BME280;63709;53.258;-8.814;2023-02-13T09:26:07;102696.59;;;12.17;100.00
64340;BME280;63709;53.258;-8.814;2023-02-13T09:28:33;102694.06;;;12.14;100.00
64340;BME280;63709;53.258;-8.814;2023-02-13T09:31:03;102699.97;;;12.21;100.00
64340;BME280;63709;53.258;-8.814;2023-02-13T09:33:29;102699.97;;;12.21;100.00
64340;BME280;63709;53.258;-8.814;2023-02-13T09:35:54;102694.69;;;12.19;100.00
64340;BME280;63709;53.258;-8.814;2023-02-13T09:38:21;102700.69;;;12.24;100.00
64340;BME280;63709;53.258;-8.814;2023-02-13T09:40:51;102700.50;;;12.45;100.00
64340;BME280;63709;53.258;-8.814;2023-02-13T09:45:46;102690.44;;;12.50;100.00
64340;BME280;63709;53.258;-8.814;2023-02-13T09:48:20;102694.16;;;12.63;100.00
64340;BME280;63709;53.258;-8.814;2023-02-13T09:50:48;102698.41;;;12.67;100.00
64340;BME280;63709;53.258;-8.814;2023-02-13T09:53:25;102697.22;;;12.73;100.00
64340;BME280;63709;53.258;-8.814;2023-02-13T09:56:03;102698.94;;;12.74;100.00
64340;BME280;63709;53.258;-8.814;2023-02-13T09:58:52;102689.03;;;12.76;100.00
64340;BME280;63709;53.258;-8.814;2023-02-13T10:03:54;102691.03;;;12.88;100.00
64340;BME280;63709;53.258;-8.814;2023-02-13T10:06:30;102694.25;;;12.95;100.00
64340;BME280;63709;53.258;-8.814;2023-02-13T10:14:01;102687.94;;;13.12;100.00
64340;BME280;63709;53.258;-8.814;2023-02-13T10:24:34;102695.34;;;13.40;100.00
64340;BME280;63709;53.258;-8.814;2023-02-13T10:27:03;102699.75;;;13.41;100.00
64340;BME280;63709;53.258;-8.814;2023-02-13T10:29:38;102691.94;;;13.52;100.00
64340;BME280;63709;53.258;-8.814;2023-02-13T10:37:43;102683.28;;;13.63;100.00
64340;BME280;63709;53.258;-8.814;2023-02-13T10:40:15;102685.81;;;13.50;100.00
64340;BME280;63709;53.258;-8.814;2023-02-13T10:42:45;102689.38;;;13.50;100.00
64340;BME280;63709;53.258;-8.814;2023-02-13T10:51:13;102682.22;;;13.81;100.00
64340;BME280;63709;53.258;-8.814;2023-02-13T10:54:09;102685.69;;;13.83;100.00
64340;BME280;63709;53.258;-8.814;2023-02-13T11:01:46;102703.63;;;14.27;100.00
64340;BME280;63709;53.258;-8.814;2023-02-13T11:04:16;102698.03;;;14.60;100.00
64340;BME280;63709;53.258;-8.814;2023-02-13T11:06:47;102704.03;;;14.65;100.00
64340;BME280;63709;53.258;-8.814;2023-02-13T11:09:15;102700.38;;;14.81;100.00
64340;BME280;63709;53.258;-8.814;2023-02-13T11:11:41;102702.19;;;14.94;100.00
64340;BME280;63709;53.258;-8.814;2023-02-13T11:14:15;102707.09;;;14.88;100.00
64340;BME280;63709;53.258;-8.814;2023-02-13T11:16:52;102702.88;;;14.84;100.00
64340;BME280;63709;53.258;-8.814;2023-02-13T11:21:45;102698.91;;;14.89;100.00
64340;BME280;63709;53.258;-8.814;2023-02-13T11:24:22;102694.13;;;14.80;100.00
64340;BME280;63709;53.258;-8.814;2023-02-13T11:26:51;102688.94;;;14.91;100.00
64340;BME280;63709;53.258;-8.814;2023-02-13T11:29:30;102690.78;;;14.91;100.00
64340;BME280;63709;53.258;-8.814;2023-02-13T11:32:02;102691.34;;;14.96;100.00
64340;BME280;63709;53.258;-8.814;2023-02-13T11:34:33;102693.91;;;14.97;100.00
64340;BME280;63709;53.258;-8.814;2023-02-13T11:37:19;102691.88;;;15.01;100.00
64340;BME280;63709;53.258;-8.814;2023-02-13T11:39:47;102700.06;;;14.85;100.00
64340;BME280;63709;53.258;-8.814;2023-02-13T11:42:14;102692.19;;;14.82;100.00
64340;BME280;63709;53.258;-8.814;2023-02-13T11:44:42;102696.22;;;14.75;100.00
64340;BME280;63709;53.258;-8.814;2023-02-13T11:47:13;102692.97;;;14.70;100.00
64340;BME280;63709;53.258;-8.814;2023-02-13T11:49:45;102673.28;;;14.84;100.00
64340;BME280;63709;53.258;-8.814;2023-02-13T11:52:27;102676.47;;;14.76;100.00
64340;BME280;63709;53.258;-8.814;2023-02-13T11:54:57;102681.81;;;14.90;100.00
64340;BME280;63709;53.258;-8.814;2023-02-13T11:57:31;102684.06;;;14.84;100.00
64340;BME280;63709;53.258;-8.814;2023-02-13T11:59:58;102673.50;;;14.81;100.00
64340;BME280;63709;53.258;-8.814;2023-02-13T12:02:25;102662.25;;;14.88;100.00
64340;BME280;63709;53.258;-8.814;2023-02-13T12:04:53;102657.16;;;14.84;100.00
64340;BME280;63709;53.258;-8.814;2023-02-13T12:07:27;102646.84;;;14.90;100.00
64340;BME280;63709;53.258;-8.814;2023-02-13T12:10:01;102651.84;;;14.96;100.00
64340;BME280;63709;53.258;-8.814;2023-02-13T12:12:38;102661.72;;;15.10;100.00
64340;BME280;63709;53.258;-8.814;2023-02-13T12:15:14;102661.91;;;15.21;100.00
64340;BME280;63709;53.258;-8.814;2023-02-13T12:17:42;102654.53;;;15.38;100.00
64340;BME280;63709;53.258;-8.814;2023-02-13T12:20:14;102647.47;;;15.22;100.00
64340;BME280;63709;53.258;-8.814;2023-02-13T12:22:52;102654.63;;;15.09;100.00
64340;BME280;63709;53.258;-8.814;2023-02-13T12:25:26;102649.88;;;15.13;100.00
64340;BME280;63709;53.258;-8.814;2023-02-13T12:28:19;102637.75;;;15.20;100.00
64340;BME280;63709;53.258;-8.814;2023-02-13T12:46:51;102618.97;;;15.60;100.00
64340;BME280;63709;53.258;-8.814;2023-02-13T12:49:17;102636.34;;;15.41;100.00
64340;BME280;63709;53.258;-8.814;2023-02-13T12:54:39;102605.75;;;15.30;100.00
64340;BME280;63709;53.258;-8.814;2023-02-13T12:57:23;102629.47;;;15.37;100.00
64340;BME280;63709;53.258;-8.814;2023-02-13T13:05:15;102595.59;;;15.60;100.00
64340;BME280;63709;53.258;-8.814;2023-02-13T13:08:07;102590.38;;;15.71;100.00
64340;BME280;63709;53.258;-8.814;2023-02-13T13:10:40;102580.84;;;15.80;100.00
64340;BME280;63709;53.258;-8.814;2023-02-13T13:18:28;102597.06;;;15.66;100.00
64340;BME280;63709;53.258;-8.814;2023-02-13T13:21:06;102586.03;;;15.56;100.00
64340;BME280;63709;53.258;-8.814;2023-02-13T13:23:43;102586.34;;;15.64;100.00
64340;BME280;63709;53.258;-8.814;2023-02-13T13:26:32;102582.09;;;15.75;100.00
64340;BME280;63709;53.258;-8.814;2023-02-13T13:29:00;102582.44;;;15.70;100.00
64340;BME280;63709;53.258;-8.814;2023-02-13T13:31:28;102576.41;;;15.79;100.00
64340;BME280;63709;53.258;-8.814;2023-02-13T13:33:57;102581.03;;;15.90;98.50
64340;BME280;63709;53.258;-8.814;2023-02-13T13:38:56;102581.59;;;16.08;95.21
64340;BME280;63709;53.258;-8.814;2023-02-13T13:41:46;102569.09;;;16.07;94.13
64340;BME280;63709;53.258;-8.814;2023-02-13T13:44:24;102559.97;;;16.09;97.24
64340;BME280;63709;53.258;-8.814;2023-02-13T13:52:17;102547.97;;;16.01;96.97
64340;BME280;63709;53.258;-8.814;2023-02-13T13:54:43;102543.66;;;15.98;95.21
64340;BME280;63709;53.258;-8.814;2023-02-13T13:57:15;102541.75;;;15.87;96.47
64340;BME280;63709;53.258;-8.814;2023-02-13T14:07:15;102533.75;;;15.86;98.43
64340;BME280;63709;53.258;-8.814;2023-02-13T14:09:47;102538.50;;;15.82;99.51
64340;BME280;63709;53.258;-8.814;2023-02-13T14:14:54;102530.75;;;15.78;100.00
64340;BME280;63709;53.258;-8.814;2023-02-13T14:20:22;102539.69;;;15.91;100.00
64340;BME280;63709;53.258;-8.814;2023-02-13T14:22:50;102541.75;;;15.87;100.00
64340;BME280;63709;53.258;-8.814;2023-02-13T14:25:25;102536.56;;;15.84;100.00
64340;BME280;63709;53.258;-8.814;2023-02-13T14:28:16;102529.00;;;15.89;100.00
64340;BME280;63709;53.258;-8.814;2023-02-13T14:30:42;102535.28;;;15.77;100.00
64340;BME280;63709;53.258;-8.814;2023-02-13T14:33:20;102534.69;;;15.72;100.00
64340;BME280;63709;53.258;-8.814;2023-02-13T14:35:47;102521.63;;;15.53;100.00
64340;BME280;63709;53.258;-8.814;2023-02-13T14:40:59;102515.06;;;15.57;100.00
64340;BME280;63709;53.258;-8.814;2023-02-13T14:43:29;102512.81;;;15.51;100.00
64340;BME280;63709;53.258;-8.814;2023-02-13T14:49:29;102500.09;;;15.53;100.00
64340;BME280;63709;53.258;-8.814;2023-02-13T14:51:33;102499.34;;;15.51;100.00
64340;BME280;63709;53.258;-8.814;2023-02-13T14:59:37;102480.50;;;15.64;100.00
64340;BME280;63709;53.258;-8.814;2023-02-13T15:04:54;102485.69;;;15.54;100.00
64340;BME280;63709;53.258;-8.814;2023-02-13T15:13:00;102472.41;;;15.38;100.00
64340;BME280;63709;53.258;-8.814;2023-02-13T15:18:02;102461.75;;;15.49;100.00
64340;BME280;63709;53.258;-8.814;2023-02-13T15:20:34;102458.84;;;15.53;100.00
64340;BME280;63709;53.258;-8.814;2023-02-13T15:23:00;102459.72;;;15.53;100.00
64340;BME280;63709;53.258;-8.814;2023-02-13T15:25:31;102458.53;;;15.57;100.00